sensor_id;sensor_type;location;lat;lon;timestamp;P1;durP1;ratioP1;P2;durP2;ratioP2
24644;SDS011;12780;45.502;9.146;2023-04-15T00:00:15;5.88;;;1.77;;
24644;SDS011;12780;45.502;9.146;2023-04-15T00:02:41;2.72;;;1.60;;
24644;SDS011;12780;45.502;9.146;2023-04-15T00:05:08;9.05;;;1.70;;
24644;SDS011;12780;45.502;9.146;2023-04-15T00:07:34;5.43;;;1.88;;
24644;SDS011;12780;45.502;9.146;2023-04-15T00:10:00;4.47;;;1.73;;
24644;SDS011;12780;45.502;9.146;2023-04-15T00:12:26;3.22;;;1.70;;
24644;SDS011;12780;45.502;9.146;2023-04-15T00:14:52;2.38;;;1.35;;
24644;SDS011;12780;45.502;9.146;2023-04-15T00:17:18;4.72;;;1.88;;
24644;SDS011;12780;45.502;9.146;2023-04-15T00:19:44;4.05;;;1.65;;
24644;SDS011;12780;45.502;9.146;2023-04-15T00:22:10;4.40;;;1.60;;
24644;SDS011;12780;45.502;9.146;2023-04-15T00:24:36;4.22;;;1.58;;
24644;SDS011;12780;45.502;9.146;2023-04-15T00:27:02;4.55;;;1.60;;
24644;SDS011;12780;45.502;9.146;2023-04-15T00:29:28;6.00;;;1.83;;
24644;SDS011;12780;45.502;9.146;2023-04-15T00:31:54;3.80;;;1.40;;
24644;SDS011;12780;45.502;9.146;2023-04-15T00:34:20;3.80;;;1.38;;
24644;SDS011;12780;45.502;9.146;2023-04-15T00:36:47;4.43;;;1.58;;
24644;SDS011;12780;45.502;9.146;2023-04-15T00:39:12;3.33;;;1.60;;
24644;SDS011;12780;45.502;9.146;2023-04-15T00:41:38;4.05;;;1.50;;
24644;SDS011;12780;45.502;9.146;2023-04-15T00:44:06;4.38;;;1.25;;
24644;SDS011;12780;45.502;9.146;2023-04-15T00:46:36;9.90;;;1.95;;
24644;SDS011;12780;45.502;9.146;2023-04-15T00:49:04;4.68;;;1.50;;
24644;SDS011;12780;45.502;9.146;2023-04-15T00:51:30;5.38;;;1.52;;
24644;SDS011;12780;45.502;9.146;2023-04-15T00:53:58;5.65;;;2.10;;
24644;SDS011;12780;45.502;9.146;2023-04-15T00:56:24;5.28;;;1.83;;
24644;SDS011;12780;45.502;9.146;2023-04-15T00:58:51;4.32;;;1.73;;
24644;SDS011;12780;45.502;9.146;2023-04-15T01:01:20;3.78;;;1.48;;
24644;SDS011;12780;45.502;9.146;2023-04-15T01:03:47;4.65;;;1.58;;
24644;SDS011;12780;45.502;9.146;2023-04-15T01:06:14;6.53;;;1.83;;
24644;SDS011;12780;45.502;9.146;2023-04-15T01:08:40;3.35;;;1.55;;
24644;SDS011;12780;45.502;9.146;2023-04-15T01:11:06;3.08;;;1.30;;
24644;SDS011;12780;45.502;9.146;2023-04-15T01:13:33;5.20;;;1.60;;
24644;SDS011;12780;45.502;9.146;2023-04-15T01:16:00;6.20;;;1.50;;
24644;SDS011;12780;45.502;9.146;2023-04-15T01:18:27;4.28;;;1.40;;
24644;SDS011;12780;45.502;9.146;2023-04-15T01:20:53;4.95;;;1.80;;
24644;SDS011;12780;45.502;9.146;2023-04-15T01:23:19;3.55;;;1.30;;
24644;SDS011;12780;45.502;9.146;2023-04-15T01:25:46;4.80;;;1.40;;
24644;SDS011;12780;45.502;9.146;2023-04-15T01:28:13;4.00;;;1.67;;
24644;SDS011;12780;45.502;9.146;2023-04-15T01:30:40;4.90;;;1.63;;
24644;SDS011;12780;45.502;9.146;2023-04-15T01:33:05;6.32;;;2.10;;
24644;SDS011;12780;45.502;9.146;2023-04-15T01:35:31;6.15;;;2.10;;
24644;SDS011;12780;45.502;9.146;2023-04-15T01:37:59;4.68;;;1.73;;
24644;SDS011;12780;45.502;9.146;2023-04-15T01:40:30;5.15;;;1.98;;
24644;SDS011;12780;45.502;9.146;2023-04-15T01:42:55;5.13;;;1.90;;
24644;SDS011;12780;45.502;9.146;2023-04-15T01:45:21;3.38;;;1.52;;
24644;SDS011;12780;45.502;9.146;2023-04-15T01:47:47;3.30;;;1.48;;
24644;SDS011;12780;45.502;9.146;2023-04-15T01:50:13;5.63;;;1.75;;
24644;SDS011;12780;45.502;9.146;2023-04-15T01:52:39;7.90;;;2.03;;
24644;SDS011;12780;45.502;9.146;2023-04-15T01:55:05;10.45;;;2.55;;
24644;SDS011;12780;45.502;9.146;2023-04-15T01:57:32;5.20;;;2.40;;
24644;SDS011;12780;45.502;9.146;2023-04-15T01:59:57;6.95;;;3.50;;
24644;SDS011;12780;45.502;9.146;2023-04-15T02:02:23;6.00;;;3.00;;
24644;SDS011;12780;45.502;9.146;2023-04-15T02:04:48;6.38;;;3.00;;
24644;SDS011;12780;45.502;9.146;2023-04-15T02:07:14;6.00;;;2.90;;
24644;SDS011;12780;45.502;9.146;2023-04-15T02:09:40;6.25;;;3.00;;
24644;SDS011;12780;45.502;9.146;2023-04-15T02:12:06;5.53;;;2.88;;
24644;SDS011;12780;45.502;9.146;2023-04-15T02:14:31;10.60;;;3.47;;
24644;SDS011;12780;45.502;9.146;2023-04-15T02:16:57;9.68;;;3.70;;
24644;SDS011;12780;45.502;9.146;2023-04-15T02:21:56;5.45;;;3.42;;
24644;SDS011;12780;45.502;9.146;2023-04-15T02:24:21;7.25;;;3.17;;
24644;SDS011;12780;45.502;9.146;2023-04-15T02:26:47;9.40;;;3.63;;
24644;SDS011;12780;45.502;9.146;2023-04-15T02:29:12;7.95;;;3.88;;
24644;SDS011;12780;45.502;9.146;2023-04-15T02:31:38;7.97;;;4.07;;
24644;SDS011;12780;45.502;9.146;2023-04-15T02:34:05;7.00;;;3.75;;
24644;SDS011;12780;45.502;9.146;2023-04-15T02:36:32;9.35;;;3.60;;
24644;SDS011;12780;45.502;9.146;2023-04-15T02:38:58;11.10;;;3.95;;
24644;SDS011;12780;45.502;9.146;2023-04-15T02:41:24;7.20;;;3.92;;
24644;SDS011;12780;45.502;9.146;2023-04-15T02:43:52;5.28;;;2.97;;
24644;SDS011;12780;45.502;9.146;2023-04-15T02:46:18;10.48;;;3.67;;
24644;SDS011;12780;45.502;9.146;2023-04-15T02:48:43;8.63;;;4.03;;
24644;SDS011;12780;45.502;9.146;2023-04-15T02:51:12;7.65;;;3.75;;
24644;SDS011;12780;45.502;9.146;2023-04-15T02:53:43;7.88;;;4.20;;
24644;SDS011;12780;45.502;9.146;2023-04-15T02:56:09;7.43;;;4.40;;
24644;SDS011;12780;45.502;9.146;2023-04-15T02:58:35;7.85;;;4.60;;
24644;SDS011;12780;45.502;9.146;2023-04-15T03:01:01;11.60;;;4.43;;
24644;SDS011;12780;45.502;9.146;2023-04-15T03:03:27;8.10;;;4.70;;
24644;SDS011;12780;45.502;9.146;2023-04-15T03:05:52;8.32;;;4.47;;
24644;SDS011;12780;45.502;9.146;2023-04-15T03:08:18;8.00;;;4.32;;
24644;SDS011;12780;45.502;9.146;2023-04-15T03:10:45;8.85;;;4.50;;
24644;SDS011;12780;45.502;9.146;2023-04-15T03:13:11;11.80;;;4.30;;
24644;SDS011;12780;45.502;9.146;2023-04-15T03:15:36;8.93;;;4.50;;
24644;SDS011;12780;45.502;9.146;2023-04-15T03:18:02;9.65;;;4.30;;
24644;SDS011;12780;45.502;9.146;2023-04-15T03:20:28;7.50;;;4.22;;
24644;SDS011;12780;45.502;9.146;2023-04-15T03:22:53;12.43;;;4.68;;
24644;SDS011;12780;45.502;9.146;2023-04-15T03:25:19;9.02;;;4.43;;
24644;SDS011;12780;45.502;9.146;2023-04-15T03:27:44;8.98;;;4.82;;
24644;SDS011;12780;45.502;9.146;2023-04-15T03:30:10;10.88;;;4.90;;
24644;SDS011;12780;45.502;9.146;2023-04-15T03:32:36;7.85;;;4.60;;
24644;SDS011;12780;45.502;9.146;2023-04-15T03:35:02;9.48;;;5.00;;
24644;SDS011;12780;45.502;9.146;2023-04-15T03:37:27;10.55;;;5.50;;
24644;SDS011;12780;45.502;9.146;2023-04-15T03:39:53;7.47;;;5.10;;
24644;SDS011;12780;45.502;9.146;2023-04-15T03:42:19;16.35;;;5.82;;
24644;SDS011;12780;45.502;9.146;2023-04-15T03:44:44;10.13;;;4.85;;
24644;SDS011;12780;45.502;9.146;2023-04-15T03:47:10;11.70;;;4.78;;
24644;SDS011;12780;45.502;9.146;2023-04-15T03:49:36;9.00;;;4.90;;
24644;SDS011;12780;45.502;9.146;2023-04-15T03:52:01;10.05;;;5.57;;
24644;SDS011;12780;45.502;9.146;2023-04-15T03:54:27;11.82;;;5.45;;
24644;SDS011;12780;45.502;9.146;2023-04-15T03:56:52;10.00;;;5.50;;
24644;SDS011;12780;45.502;9.146;2023-04-15T03:59:18;8.93;;;4.97;;
24644;SDS011;12780;45.502;9.146;2023-04-15T04:01:43;12.95;;;5.40;;
24644;SDS011;12780;45.502;9.146;2023-04-15T04:04:09;8.88;;;4.78;;
24644;SDS011;12780;45.502;9.146;2023-04-15T04:06:35;11.40;;;5.10;;
24644;SDS011;12780;45.502;9.146;2023-04-15T04:09:01;9.05;;;5.28;;
24644;SDS011;12780;45.502;9.146;2023-04-15T04:11:26;8.18;;;5.15;;
24644;SDS011;12780;45.502;9.146;2023-04-15T04:13:52;9.35;;;4.65;;
24644;SDS011;12780;45.502;9.146;2023-04-15T04:16:18;8.80;;;4.90;;
24644;SDS011;12780;45.502;9.146;2023-04-15T04:18:44;8.63;;;4.93;;
24644;SDS011;12780;45.502;9.146;2023-04-15T04:21:09;11.45;;;4.82;;
24644;SDS011;12780;45.502;9.146;2023-04-15T04:23:35;9.98;;;5.03;;
24644;SDS011;12780;45.502;9.146;2023-04-15T04:26:01;8.68;;;4.97;;
24644;SDS011;12780;45.502;9.146;2023-04-15T04:28:26;12.88;;;4.85;;
24644;SDS011;12780;45.502;9.146;2023-04-15T04:30:52;9.98;;;5.10;;
24644;SDS011;12780;45.502;9.146;2023-04-15T04:33:17;9.82;;;5.38;;
24644;SDS011;12780;45.502;9.146;2023-04-15T04:35:43;10.30;;;5.05;;
24644;SDS011;12780;45.502;9.146;2023-04-15T04:38:09;10.77;;;4.75;;
24644;SDS011;12780;45.502;9.146;2023-04-15T04:40:34;10.88;;;5.65;;
24644;SDS011;12780;45.502;9.146;2023-04-15T04:43:00;11.10;;;5.15;;
24644;SDS011;12780;45.502;9.146;2023-04-15T04:45:26;11.18;;;5.43;;
24644;SDS011;12780;45.502;9.146;2023-04-15T04:47:52;11.77;;;4.72;;
24644;SDS011;12780;45.502;9.146;2023-04-15T04:50:17;17.67;;;5.93;;
24644;SDS011;12780;45.502;9.146;2023-04-15T04:52:43;12.52;;;5.05;;
24644;SDS011;12780;45.502;9.146;2023-04-15T04:55:08;9.85;;;5.38;;
24644;SDS011;12780;45.502;9.146;2023-04-15T04:57:34;12.07;;;5.47;;
24644;SDS011;12780;45.502;9.146;2023-04-15T05:00:00;10.88;;;5.78;;
24644;SDS011;12780;45.502;9.146;2023-04-15T05:02:28;11.27;;;5.13;;
24644;SDS011;12780;45.502;9.146;2023-04-15T05:04:54;11.30;;;5.10;;
24644;SDS011;12780;45.502;9.146;2023-04-15T05:07:20;15.32;;;5.28;;
24644;SDS011;12780;45.502;9.146;2023-04-15T05:09:46;15.50;;;5.35;;
24644;SDS011;12780;45.502;9.146;2023-04-15T05:12:11;10.93;;;5.38;;
24644;SDS011;12780;45.502;9.146;2023-04-15T05:14:39;12.73;;;5.05;;
24644;SDS011;12780;45.502;9.146;2023-04-15T05:17:05;13.80;;;5.63;;
24644;SDS011;12780;45.502;9.146;2023-04-15T05:19:31;14.02;;;5.47;;
24644;SDS011;12780;45.502;9.146;2023-04-15T05:21:57;10.65;;;5.10;;
24644;SDS011;12780;45.502;9.146;2023-04-15T05:24:22;12.07;;;5.60;;
24644;SDS011;12780;45.502;9.146;2023-04-15T05:26:48;14.73;;;5.20;;
24644;SDS011;12780;45.502;9.146;2023-04-15T05:29:13;10.07;;;5.40;;
24644;SDS011;12780;45.502;9.146;2023-04-15T05:31:39;12.38;;;5.20;;
24644;SDS011;12780;45.502;9.146;2023-04-15T05:34:05;11.70;;;5.20;;
24644;SDS011;12780;45.502;9.146;2023-04-15T05:36:31;10.07;;;5.15;;
24644;SDS011;12780;45.502;9.146;2023-04-15T05:38:56;14.95;;;5.50;;
24644;SDS011;12780;45.502;9.146;2023-04-15T05:41:22;13.85;;;5.43;;
24644;SDS011;12780;45.502;9.146;2023-04-15T05:43:48;15.68;;;5.72;;
24644;SDS011;12780;45.502;9.146;2023-04-15T05:46:13;20.75;;;5.80;;
24644;SDS011;12780;45.502;9.146;2023-04-15T05:48:39;18.33;;;5.70;;
24644;SDS011;12780;45.502;9.146;2023-04-15T05:51:04;11.70;;;5.35;;
24644;SDS011;12780;45.502;9.146;2023-04-15T05:53:30;12.85;;;5.93;;
24644;SDS011;12780;45.502;9.146;2023-04-15T05:55:56;14.57;;;5.97;;
24644;SDS011;12780;45.502;9.146;2023-04-15T05:58:21;19.40;;;6.38;;
24644;SDS011;12780;45.502;9.146;2023-04-15T06:00:47;16.30;;;6.18;;
24644;SDS011;12780;45.502;9.146;2023-04-15T06:03:13;13.07;;;5.40;;
24644;SDS011;12780;45.502;9.146;2023-04-15T06:05:38;17.00;;;6.35;;
24644;SDS011;12780;45.502;9.146;2023-04-15T06:08:04;15.82;;;5.90;;
24644;SDS011;12780;45.502;9.146;2023-04-15T06:10:30;12.05;;;4.90;;
24644;SDS011;12780;45.502;9.146;2023-04-15T06:13:00;9.63;;;4.53;;
24644;SDS011;12780;45.502;9.146;2023-04-15T06:15:27;8.27;;;3.85;;
24644;SDS011;12780;45.502;9.146;2023-04-15T06:17:52;12.00;;;3.50;;
24644;SDS011;12780;45.502;9.146;2023-04-15T06:20:18;8.50;;;3.35;;
24644;SDS011;12780;45.502;9.146;2023-04-15T06:22:44;10.55;;;3.33;;
24644;SDS011;12780;45.502;9.146;2023-04-15T06:25:10;5.97;;;3.30;;
24644;SDS011;12780;45.502;9.146;2023-04-15T06:27:35;5.80;;;3.28;;
24644;SDS011;12780;45.502;9.146;2023-04-15T06:30:01;6.75;;;3.60;;
24644;SDS011;12780;45.502;9.146;2023-04-15T06:32:27;9.68;;;3.40;;
24644;SDS011;12780;45.502;9.146;2023-04-15T06:34:52;11.00;;;4.35;;
24644;SDS011;12780;45.502;9.146;2023-04-15T06:37:18;8.43;;;3.63;;
24644;SDS011;12780;45.502;9.146;2023-04-15T06:39:43;8.98;;;3.90;;
24644;SDS011;12780;45.502;9.146;2023-04-15T06:42:09;14.65;;;4.30;;
24644;SDS011;12780;45.502;9.146;2023-04-15T06:44:35;9.98;;;4.13;;
24644;SDS011;12780;45.502;9.146;2023-04-15T06:47:01;16.67;;;4.93;;
24644;SDS011;12780;45.502;9.146;2023-04-15T06:49:27;14.60;;;5.00;;
24644;SDS011;12780;45.502;9.146;2023-04-15T06:51:52;11.85;;;4.30;;
24644;SDS011;12780;45.502;9.146;2023-04-15T06:54:18;19.48;;;3.83;;
24644;SDS011;12780;45.502;9.146;2023-04-15T06:56:44;12.60;;;4.03;;
24644;SDS011;12780;45.502;9.146;2023-04-15T06:59:09;10.10;;;3.25;;
24644;SDS011;12780;45.502;9.146;2023-04-15T07:01:35;9.95;;;3.20;;
24644;SDS011;12780;45.502;9.146;2023-04-15T07:04:00;8.05;;;3.45;;
24644;SDS011;12780;45.502;9.146;2023-04-15T07:06:26;13.25;;;3.63;;
24644;SDS011;12780;45.502;9.146;2023-04-15T07:08:52;7.50;;;3.53;;
24644;SDS011;12780;45.502;9.146;2023-04-15T07:11:18;11.15;;;3.65;;
24644;SDS011;12780;45.502;9.146;2023-04-15T07:13:44;10.77;;;4.18;;
24644;SDS011;12780;45.502;9.146;2023-04-15T07:16:10;9.05;;;4.40;;
24644;SDS011;12780;45.502;9.146;2023-04-15T07:18:36;10.98;;;4.57;;
24644;SDS011;12780;45.502;9.146;2023-04-15T07:21:01;7.32;;;4.10;;
24644;SDS011;12780;45.502;9.146;2023-04-15T07:23:27;9.23;;;4.43;;
24644;SDS011;12780;45.502;9.146;2023-04-15T07:25:53;10.50;;;4.30;;
24644;SDS011;12780;45.502;9.146;2023-04-15T07:28:19;8.48;;;3.95;;
24644;SDS011;12780;45.502;9.146;2023-04-15T07:30:44;11.20;;;4.40;;
24644;SDS011;12780;45.502;9.146;2023-04-15T07:33:10;7.95;;;4.20;;
24644;SDS011;12780;45.502;9.146;2023-04-15T07:35:35;7.82;;;4.03;;
24644;SDS011;12780;45.502;9.146;2023-04-15T07:38:01;7.70;;;4.32;;
24644;SDS011;12780;45.502;9.146;2023-04-15T07:40:27;12.68;;;3.90;;
24644;SDS011;12780;45.502;9.146;2023-04-15T07:42:53;10.85;;;4.18;;
24644;SDS011;12780;45.502;9.146;2023-04-15T07:45:21;13.32;;;4.15;;
24644;SDS011;12780;45.502;9.146;2023-04-15T07:47:46;9.88;;;4.05;;
24644;SDS011;12780;45.502;9.146;2023-04-15T07:50:12;7.78;;;4.30;;
24644;SDS011;12780;45.502;9.146;2023-04-15T07:52:38;8.05;;;4.25;;
24644;SDS011;12780;45.502;9.146;2023-04-15T07:55:05;10.45;;;3.92;;
24644;SDS011;12780;45.502;9.146;2023-04-15T07:57:32;9.93;;;3.85;;
24644;SDS011;12780;45.502;9.146;2023-04-15T08:00:01;7.75;;;3.95;;
24644;SDS011;12780;45.502;9.146;2023-04-15T08:02:29;5.93;;;3.60;;
24644;SDS011;12780;45.502;9.146;2023-04-15T08:04:55;6.32;;;3.70;;
24644;SDS011;12780;45.502;9.146;2023-04-15T08:07:21;8.30;;;4.07;;
24644;SDS011;12780;45.502;9.146;2023-04-15T08:09:47;9.77;;;4.03;;
24644;SDS011;12780;45.502;9.146;2023-04-15T08:12:13;9.15;;;4.03;;
24644;SDS011;12780;45.502;9.146;2023-04-15T08:14:38;5.38;;;3.90;;
24644;SDS011;12780;45.502;9.146;2023-04-15T08:17:04;7.90;;;4.28;;
24644;SDS011;12780;45.502;9.146;2023-04-15T08:19:30;9.10;;;4.53;;
24644;SDS011;12780;45.502;9.146;2023-04-15T08:21:56;10.43;;;4.30;;
24644;SDS011;12780;45.502;9.146;2023-04-15T08:24:21;9.75;;;4.35;;
24644;SDS011;12780;45.502;9.146;2023-04-15T08:26:50;8.77;;;4.40;;
24644;SDS011;12780;45.502;9.146;2023-04-15T08:29:16;6.70;;;4.55;;
24644;SDS011;12780;45.502;9.146;2023-04-15T08:31:42;8.65;;;4.32;;
24644;SDS011;12780;45.502;9.146;2023-04-15T08:34:07;10.43;;;4.75;;
24644;SDS011;12780;45.502;9.146;2023-04-15T08:36:33;7.65;;;4.28;;
24644;SDS011;12780;45.502;9.146;2023-04-15T08:38:58;8.60;;;4.38;;
24644;SDS011;12780;45.502;9.146;2023-04-15T08:41:26;8.32;;;4.75;;
24644;SDS011;12780;45.502;9.146;2023-04-15T08:44:00;12.68;;;5.22;;
24644;SDS011;12780;45.502;9.146;2023-04-15T08:46:28;8.45;;;4.43;;
24644;SDS011;12780;45.502;9.146;2023-04-15T08:48:56;12.65;;;4.47;;
24644;SDS011;12780;45.502;9.146;2023-04-15T08:51:22;8.18;;;4.47;;
24644;SDS011;12780;45.502;9.146;2023-04-15T08:53:48;10.38;;;4.38;;
24644;SDS011;12780;45.502;9.146;2023-04-15T08:56:14;8.27;;;4.28;;
24644;SDS011;12780;45.502;9.146;2023-04-15T08:58:42;12.65;;;5.03;;
24644;SDS011;12780;45.502;9.146;2023-04-15T09:01:09;9.80;;;4.38;;
24644;SDS011;12780;45.502;9.146;2023-04-15T09:03:37;7.43;;;4.32;;
24644;SDS011;12780;45.502;9.146;2023-04-15T09:06:05;9.82;;;4.82;;
24644;SDS011;12780;45.502;9.146;2023-04-15T09:08:31;8.60;;;4.65;;
24644;SDS011;12780;45.502;9.146;2023-04-15T09:10:58;12.90;;;4.57;;
24644;SDS011;12780;45.502;9.146;2023-04-15T09:13:24;8.65;;;4.32;;
24644;SDS011;12780;45.502;9.146;2023-04-15T09:15:50;9.90;;;4.40;;
24644;SDS011;12780;45.502;9.146;2023-04-15T09:23:30;9.47;;;4.30;;
24644;SDS011;12780;45.502;9.146;2023-04-15T09:25:56;9.13;;;4.10;;
24644;SDS011;12780;45.502;9.146;2023-04-15T09:28:23;10.18;;;4.75;;
24644;SDS011;12780;45.502;9.146;2023-04-15T09:30:50;14.90;;;4.85;;
24644;SDS011;12780;45.502;9.146;2023-04-15T09:33:19;8.77;;;4.25;;
24644;SDS011;12780;45.502;9.146;2023-04-15T09:36:01;9.98;;;4.30;;
24644;SDS011;12780;45.502;9.146;2023-04-15T09:40:54;9.75;;;3.85;;
24644;SDS011;12780;45.502;9.146;2023-04-15T09:43:21;11.18;;;3.95;;
24644;SDS011;12780;45.502;9.146;2023-04-15T09:45:48;10.82;;;3.83;;
24644;SDS011;12780;45.502;9.146;2023-04-15T09:48:24;9.00;;;3.70;;
24644;SDS011;12780;45.502;9.146;2023-04-15T09:50:51;17.95;;;4.22;;
24644;SDS011;12780;45.502;9.146;2023-04-15T09:53:22;9.10;;;4.00;;
24644;SDS011;12780;45.502;9.146;2023-04-15T09:55:49;9.23;;;4.20;;
24644;SDS011;12780;45.502;9.146;2023-04-15T09:58:20;12.43;;;4.18;;
24644;SDS011;12780;45.502;9.146;2023-04-15T10:00:51;8.90;;;3.80;;
24644;SDS011;12780;45.502;9.146;2023-04-15T10:03:21;14.23;;;4.30;;
24644;SDS011;12780;45.502;9.146;2023-04-15T10:05:49;9.20;;;3.50;;
24644;SDS011;12780;45.502;9.146;2023-04-15T10:08:17;12.68;;;4.18;;
24644;SDS011;12780;45.502;9.146;2023-04-15T10:10:45;8.77;;;3.60;;
24644;SDS011;12780;45.502;9.146;2023-04-15T10:13:16;14.00;;;3.72;;
24644;SDS011;12780;45.502;9.146;2023-04-15T10:15:43;7.55;;;3.63;;
24644;SDS011;12780;45.502;9.146;2023-04-15T10:18:11;10.50;;;3.83;;
24644;SDS011;12780;45.502;9.146;2023-04-15T10:20:41;12.38;;;4.20;;
24644;SDS011;12780;45.502;9.146;2023-04-15T10:23:08;10.43;;;3.75;;
24644;SDS011;12780;45.502;9.146;2023-04-15T10:25:33;12.10;;;4.30;;
24644;SDS011;12780;45.502;9.146;2023-04-15T10:28:00;10.18;;;3.67;;
24644;SDS011;12780;45.502;9.146;2023-04-15T10:30:27;9.57;;;3.60;;
24644;SDS011;12780;45.502;9.146;2023-04-15T10:32:53;14.52;;;3.47;;
24644;SDS011;12780;45.502;9.146;2023-04-15T10:35:20;9.88;;;3.80;;
24644;SDS011;12780;45.502;9.146;2023-04-15T10:37:47;12.75;;;4.28;;
24644;SDS011;12780;45.502;9.146;2023-04-15T10:42:56;9.10;;;3.25;;
24644;SDS011;12780;45.502;9.146;2023-04-15T10:45:26;10.07;;;3.30;;
24644;SDS011;12780;45.502;9.146;2023-04-15T10:48:00;11.18;;;3.63;;
24644;SDS011;12780;45.502;9.146;2023-04-15T10:50:29;17.37;;;3.73;;
24644;SDS011;12780;45.502;9.146;2023-04-15T10:52:56;13.75;;;3.63;;
24644;SDS011;12780;45.502;9.146;2023-04-15T10:55:23;13.80;;;3.97;;
24644;SDS011;12780;45.502;9.146;2023-04-15T10:57:51;7.68;;;3.40;;
24644;SDS011;12780;45.502;9.146;2023-04-15T11:00:27;16.83;;;3.73;;
24644;SDS011;12780;45.502;9.146;2023-04-15T11:02:55;29.17;;;3.60;;
24644;SDS011;12780;45.502;9.146;2023-04-15T11:05:49;8.68;;;3.50;;
24644;SDS011;12780;45.502;9.146;2023-04-15T11:08:13;18.63;;;3.38;;
24644;SDS011;12780;45.502;9.146;2023-04-15T11:15:46;16.77;;;4.10;;
24644;SDS011;12780;45.502;9.146;2023-04-15T11:18:20;12.35;;;2.78;;
24644;SDS011;12780;45.502;9.146;2023-04-15T11:20:48;11.57;;;2.88;;
24644;SDS011;12780;45.502;9.146;2023-04-15T11:23:15;12.32;;;2.83;;
24644;SDS011;12780;45.502;9.146;2023-04-15T11:25:53;6.85;;;2.28;;
24644;SDS011;12780;45.502;9.146;2023-04-15T11:28:21;8.82;;;2.67;;
24644;SDS011;12780;45.502;9.146;2023-04-15T11:30:50;7.90;;;2.30;;
24644;SDS011;12780;45.502;9.146;2023-04-15T11:33:16;13.95;;;3.13;;
24644;SDS011;12780;45.502;9.146;2023-04-15T11:35:41;12.77;;;2.50;;
24644;SDS011;12780;45.502;9.146;2023-04-15T11:38:08;9.85;;;2.50;;
24644;SDS011;12780;45.502;9.146;2023-04-15T11:40:38;8.50;;;2.70;;
24644;SDS011;12780;45.502;9.146;2023-04-15T11:45:37;9.70;;;2.87;;
24644;SDS011;12780;45.502;9.146;2023-04-15T11:48:22;10.77;;;2.50;;
24644;SDS011;12780;45.502;9.146;2023-04-15T11:50:52;7.43;;;2.20;;
24644;SDS011;12780;45.502;9.146;2023-04-15T11:53:23;6.13;;;1.98;;
24644;SDS011;12780;45.502;9.146;2023-04-15T11:55:59;9.23;;;2.72;;
24644;SDS011;12780;45.502;9.146;2023-04-15T11:58:25;5.82;;;2.15;;
24644;SDS011;12780;45.502;9.146;2023-04-15T12:03:25;8.15;;;2.70;;
24644;SDS011;12780;45.502;9.146;2023-04-15T12:06:01;8.73;;;3.03;;
24644;SDS011;12780;45.502;9.146;2023-04-15T12:11:37;9.70;;;3.30;;
24644;SDS011;12780;45.502;9.146;2023-04-15T12:14:20;11.93;;;3.40;;
24644;SDS011;12780;45.502;9.146;2023-04-15T12:16:52;9.43;;;3.58;;
24644;SDS011;12780;45.502;9.146;2023-04-15T12:21:54;12.88;;;3.15;;
24644;SDS011;12780;45.502;9.146;2023-04-15T12:24:23;11.90;;;3.30;;
24644;SDS011;12780;45.502;9.146;2023-04-15T12:26:49;10.68;;;3.65;;
24644;SDS011;12780;45.502;9.146;2023-04-15T12:29:17;10.77;;;3.05;;
24644;SDS011;12780;45.502;9.146;2023-04-15T12:31:53;10.70;;;2.72;;
24644;SDS011;12780;45.502;9.146;2023-04-15T12:34:29;7.07;;;3.00;;
24644;SDS011;12780;45.502;9.146;2023-04-15T12:36:56;11.50;;;3.53;;
24644;SDS011;12780;45.502;9.146;2023-04-15T12:39:24;8.00;;;2.65;;
24644;SDS011;12780;45.502;9.146;2023-04-15T12:41:51;9.93;;;3.17;;
24644;SDS011;12780;45.502;9.146;2023-04-15T12:44:17;7.07;;;2.63;;
24644;SDS011;12780;45.502;9.146;2023-04-15T12:46:42;6.43;;;2.78;;
24644;SDS011;12780;45.502;9.146;2023-04-15T12:49:08;9.80;;;2.72;;
24644;SDS011;12780;45.502;9.146;2023-04-15T12:51:33;7.10;;;2.53;;
24644;SDS011;12780;45.502;9.146;2023-04-15T12:53:59;10.45;;;2.35;;
24644;SDS011;12780;45.502;9.146;2023-04-15T12:56:25;11.65;;;2.60;;
24644;SDS011;12780;45.502;9.146;2023-04-15T12:58:50;11.05;;;2.60;;
24644;SDS011;12780;45.502;9.146;2023-04-15T13:01:16;9.98;;;2.90;;
24644;SDS011;12780;45.502;9.146;2023-04-15T13:03:42;8.30;;;2.70;;
24644;SDS011;12780;45.502;9.146;2023-04-15T13:06:08;8.43;;;2.30;;
24644;SDS011;12780;45.502;9.146;2023-04-15T13:08:34;6.82;;;2.22;;
24644;SDS011;12780;45.502;9.146;2023-04-15T13:10:59;8.50;;;2.60;;
24644;SDS011;12780;45.502;9.146;2023-04-15T13:13:25;9.77;;;2.75;;
24644;SDS011;12780;45.502;9.146;2023-04-15T13:15:51;8.38;;;2.53;;
24644;SDS011;12780;45.502;9.146;2023-04-15T13:18:17;7.40;;;2.20;;
24644;SDS011;12780;45.502;9.146;2023-04-15T13:20:42;4.30;;;1.85;;
24644;SDS011;12780;45.502;9.146;2023-04-15T13:23:08;5.80;;;2.20;;
24644;SDS011;12780;45.502;9.146;2023-04-15T13:25:34;5.88;;;1.98;;
24644;SDS011;12780;45.502;9.146;2023-04-15T13:28:00;12.30;;;2.30;;
24644;SDS011;12780;45.502;9.146;2023-04-15T13:30:25;5.28;;;1.90;;
24644;SDS011;12780;45.502;9.146;2023-04-15T13:32:52;9.60;;;2.30;;
24644;SDS011;12780;45.502;9.146;2023-04-15T13:35:18;8.60;;;2.10;;
24644;SDS011;12780;45.502;9.146;2023-04-15T13:37:44;9.23;;;2.10;;
24644;SDS011;12780;45.502;9.146;2023-04-15T13:40:11;8.45;;;1.98;;
24644;SDS011;12780;45.502;9.146;2023-04-15T13:42:36;9.18;;;2.22;;
24644;SDS011;12780;45.502;9.146;2023-04-15T13:45:02;6.07;;;2.30;;
24644;SDS011;12780;45.502;9.146;2023-04-15T13:47:27;10.02;;;2.58;;
24644;SDS011;12780;45.502;9.146;2023-04-15T13:49:53;9.23;;;2.10;;
24644;SDS011;12780;45.502;9.146;2023-04-15T13:52:20;5.63;;;1.73;;
24644;SDS011;12780;45.502;9.146;2023-04-15T13:54:46;8.35;;;2.20;;
24644;SDS011;12780;45.502;9.146;2023-04-15T13:57:12;6.28;;;2.22;;
24644;SDS011;12780;45.502;9.146;2023-04-15T13:59:38;10.05;;;2.10;;
24644;SDS011;12780;45.502;9.146;2023-04-15T14:02:03;5.05;;;1.70;;
24644;SDS011;12780;45.502;9.146;2023-04-15T14:04:30;5.32;;;1.88;;
24644;SDS011;12780;45.502;9.146;2023-04-15T14:06:56;6.13;;;1.75;;
24644;SDS011;12780;45.502;9.146;2023-04-15T14:09:21;3.88;;;1.58;;
24644;SDS011;12780;45.502;9.146;2023-04-15T14:11:48;8.25;;;1.73;;
24644;SDS011;12780;45.502;9.146;2023-04-15T14:14:14;9.38;;;2.33;;
24644;SDS011;12780;45.502;9.146;2023-04-15T14:16:40;9.43;;;2.25;;
24644;SDS011;12780;45.502;9.146;2023-04-15T14:19:05;5.55;;;1.67;;
24644;SDS011;12780;45.502;9.146;2023-04-15T14:21:31;5.80;;;1.60;;
24644;SDS011;12780;45.502;9.146;2023-04-15T14:23:57;5.55;;;1.67;;
24644;SDS011;12780;45.502;9.146;2023-04-15T14:26:23;10.70;;;1.90;;
24644;SDS011;12780;45.502;9.146;2023-04-15T14:28:48;2.15;;;1.50;;
24644;SDS011;12780;45.502;9.146;2023-04-15T14:31:14;6.32;;;1.75;;
24644;SDS011;12780;45.502;9.146;2023-04-15T14:33:40;7.35;;;2.17;;
24644;SDS011;12780;45.502;9.146;2023-04-15T14:36:09;7.28;;;1.90;;
24644;SDS011;12780;45.502;9.146;2023-04-15T14:38:35;11.43;;;1.92;;
24644;SDS011;12780;45.502;9.146;2023-04-15T14:41:03;5.28;;;1.63;;
24644;SDS011;12780;45.502;9.146;2023-04-15T14:43:29;12.55;;;2.00;;
24644;SDS011;12780;45.502;9.146;2023-04-15T14:45:54;6.90;;;1.90;;
24644;SDS011;12780;45.502;9.146;2023-04-15T14:48:20;10.10;;;2.30;;
24644;SDS011;12780;45.502;9.146;2023-04-15T14:50:45;6.75;;;1.98;;
24644;SDS011;12780;45.502;9.146;2023-04-15T14:53:11;7.10;;;2.15;;
24644;SDS011;12780;45.502;9.146;2023-04-15T14:55:37;6.70;;;1.83;;
24644;SDS011;12780;45.502;9.146;2023-04-15T14:58:02;4.13;;;1.58;;
24644;SDS011;12780;45.502;9.146;2023-04-15T15:00:28;8.38;;;1.85;;
24644;SDS011;12780;45.502;9.146;2023-04-15T15:02:54;4.80;;;1.67;;
24644;SDS011;12780;45.502;9.146;2023-04-15T15:05:20;9.57;;;1.70;;
24644;SDS011;12780;45.502;9.146;2023-04-15T15:07:46;4.65;;;1.77;;